sensor_id;sensor_type;location;lat;lon;timestamp;pressure;altitude;pressure_sealevel;temperature;humidity
46886;BME280;32622;48.202;11.326;2022-12-04T00:00:54;1017.54;;;-3.49;47.57
46886;BME280;32622;48.202;11.326;2022-12-04T00:02:57;1017.22;;;-2.07;46.58
46886;BME280;32622;48.202;11.326;2022-12-04T00:05:00;1017.63;;;-3.54;47.57
46886;BME280;32622;48.202;11.326;2022-12-04T00:07:04;1017.70;;;-3.89;49.30
46886;BME280;32622;48.202;11.326;2022-12-04T00:09:07;1018.01;;;-4.85;51.10
46886;BME280;32622;48.202;11.326;2022-12-04T00:11:12;1017.44;;;-2.70;48.49
46886;BME280;32622;48.202;11.326;2022-12-04T00:13:20;1017.37;;;-2.53;47.56
46886;BME280;32622;48.202;11.326;2022-12-04T00:15:23;1017.39;;;-2.75;48.00
46886;BME280;32622;48.202;11.326;2022-12-04T00:17:26;1017.67;;;-3.94;49.24
46886;BME280;32622;48.202;11.326;2022-12-04T00:19:29;1017.69;;;-3.88;49.27
46886;BME280;32622;48.202;11.326;2022-12-04T00:21:31;1017.63;;;-3.77;48.45
46886;BME280;32622;48.202;11.326;2022-12-04T00:23:36;1017.84;;;-4.06;50.02
46886;BME280;32622;48.202;11.326;2022-12-04T00:25:39;1017.87;;;-4.30;51.54
46886;BME280;32622;48.202;11.326;2022-12-04T00:27:42;1017.94;;;-4.17;52.00
46886;BME280;32622;48.202;11.326;2022-12-04T00:29:45;1017.94;;;-3.89;50.55
46886;BME280;32622;48.202;11.326;2022-12-04T00:31:48;1018.01;;;-4.05;51.18
46886;BME280;32622;48.202;11.326;2022-12-04T00:33:51;1018.02;;;-4.08;51.20
46886;BME280;32622;48.202;11.326;2022-12-04T00:35:58;1018.14;;;-4.29;51.52
46886;BME280;32622;48.202;11.326;2022-12-04T00:38:01;1018.12;;;-4.52;51.89
46886;BME280;32622;48.202;11.326;2022-12-04T00:40:05;1018.01;;;-4.34;51.51
46886;BME280;32622;48.202;11.326;2022-12-04T00:42:10;1017.76;;;-3.73;50.79
46886;BME280;32622;48.202;11.326;2022-12-04T00:44:18;1017.82;;;-4.04;50.98
46886;BME280;32622;48.202;11.326;2022-12-04T00:46:22;1017.57;;;-3.27;48.84
46886;BME280;32622;48.202;11.326;2022-12-04T00:48:25;1017.47;;;-2.89;48.77
46886;BME280;32622;48.202;11.326;2022-12-04T00:50:28;1017.54;;;-2.79;48.41
46886;BME280;32622;48.202;11.326;2022-12-04T00:52:31;1017.54;;;-2.90;47.81
46886;BME280;32622;48.202;11.326;2022-12-04T00:54:33;1017.85;;;-4.09;48.37
46886;BME280;32622;48.202;11.326;2022-12-04T00:56:36;1017.86;;;-4.09;49.90
46886;BME280;32622;48.202;11.326;2022-12-04T00:58:39;1017.83;;;-3.71;49.47
46886;BME280;32622;48.202;11.326;2022-12-04T01:00:42;1017.81;;;-3.73;50.53
46886;BME280;32622;48.202;11.326;2022-12-04T01:02:45;1017.78;;;-3.87;50.62
46886;BME280;32622;48.202;11.326;2022-12-04T01:04:47;1017.59;;;-3.34;48.20
46886;BME280;32622;48.202;11.326;2022-12-04T01:06:50;1017.43;;;-2.72;47.73
46886;BME280;32622;48.202;11.326;2022-12-04T01:08:54;1017.60;;;-3.33;47.97
46886;BME280;32622;48.202;11.326;2022-12-04T01:10:57;1017.12;;;-1.27;45.53
46886;BME280;32622;48.202;11.326;2022-12-04T01:13:00;1017.33;;;-2.08;45.19
46886;BME280;32622;48.202;11.326;2022-12-04T01:15:04;1017.31;;;-1.95;45.15
46886;BME280;32622;48.202;11.326;2022-12-04T01:17:07;1017.64;;;-3.18;47.77
46886;BME280;32622;48.202;11.326;2022-12-04T01:19:11;1017.56;;;-2.60;47.88
46886;BME280;32622;48.202;11.326;2022-12-04T01:21:14;1017.46;;;-2.19;46.13
46886;BME280;32622;48.202;11.326;2022-12-04T01:23:18;1017.59;;;-2.58;47.64
46886;BME280;32622;48.202;11.326;2022-12-04T01:25:21;1017.58;;;-3.01;47.64
46886;BME280;32622;48.202;11.326;2022-12-04T01:27:23;1017.64;;;-3.12;48.92
46886;BME280;32622;48.202;11.326;2022-12-04T01:29:26;1017.57;;;-2.87;48.11
46886;BME280;32622;48.202;11.326;2022-12-04T01:31:29;1017.53;;;-2.56;46.58
46886;BME280;32622;48.202;11.326;2022-12-04T01:33:35;1017.37;;;-1.78;45.04
46886;BME280;32622;48.202;11.326;2022-12-04T01:35:38;1017.43;;;-1.73;45.21
46886;BME280;32622;48.202;11.326;2022-12-04T01:37:46;1017.43;;;-2.19;45.19
46886;BME280;32622;48.202;11.326;2022-12-04T01:39:49;1017.53;;;-2.61;46.63
46886;BME280;32622;48.202;11.326;2022-12-04T01:41:51;1017.40;;;-2.00;45.20
46886;BME280;32622;48.202;11.326;2022-12-04T01:44:16;1017.76;;;-3.33;47.08
46886;BME280;32622;48.202;11.326;2022-12-04T01:46:19;1017.29;;;-1.97;45.99
46886;BME280;32622;48.202;11.326;2022-12-04T01:48:26;1017.15;;;-1.25;44.02
46886;BME280;32622;48.202;11.326;2022-12-04T01:50:30;1017.11;;;-0.98;43.68
46886;BME280;32622;48.202;11.326;2022-12-04T01:52:33;1017.61;;;-3.07;45.89
46886;BME280;32622;48.202;11.326;2022-12-04T01:54:39;1017.16;;;-1.52;44.88
46886;BME280;32622;48.202;11.326;2022-12-04T01:56:46;1017.42;;;-2.50;45.59
46886;BME280;32622;48.202;11.326;2022-12-04T01:58:57;1017.56;;;-3.06;47.27
46886;BME280;32622;48.202;11.326;2022-12-04T02:01:04;1018.10;;;-4.99;51.09
46886;BME280;32622;48.202;11.326;2022-12-04T02:03:08;1017.49;;;-2.62;48.01
46886;BME280;32622;48.202;11.326;2022-12-04T02:05:13;1017.79;;;-4.00;49.84
46886;BME280;32622;48.202;11.326;2022-12-04T02:07:40;1017.41;;;-2.94;47.50
46886;BME280;32622;48.202;11.326;2022-12-04T02:09:45;1017.83;;;-4.58;50.52
46886;BME280;32622;48.202;11.326;2022-12-04T02:11:52;1017.81;;;-4.63;50.66
46886;BME280;32622;48.202;11.326;2022-12-04T02:14:06;1017.80;;;-4.70;51.05
46886;BME280;32622;48.202;11.326;2022-12-04T02:16:18;1017.33;;;-3.18;47.60
46886;BME280;32622;48.202;11.326;2022-12-04T02:18:30;1017.18;;;-2.80;47.70
46886;BME280;32622;48.202;11.326;2022-12-04T02:20:38;1017.19;;;-2.91;48.23
46886;BME280;32622;48.202;11.326;2022-12-04T02:23:02;1017.73;;;-4.83;51.14
46886;BME280;32622;48.202;11.326;2022-12-04T02:25:21;1017.86;;;-5.25;52.49
46886;BME280;32622;48.202;11.326;2022-12-04T02:27:51;1017.39;;;-3.40;48.95
46886;BME280;32622;48.202;11.326;2022-12-04T02:30:01;1017.24;;;-2.85;48.05
46886;BME280;32622;48.202;11.326;2022-12-04T02:32:11;1017.12;;;-2.54;46.54
46886;BME280;32622;48.202;11.326;2022-12-04T02:34:24;1017.51;;;-4.17;49.78
46886;BME280;32622;48.202;11.326;2022-12-04T02:36:30;1017.30;;;-3.63;48.62
46886;BME280;32622;48.202;11.326;2022-12-04T02:38:36;1017.24;;;-3.58;49.42
46886;BME280;32622;48.202;11.326;2022-12-04T02:40:46;1017.56;;;-4.97;53.16
46886;BME280;32622;48.202;11.326;2022-12-04T02:42:54;1017.45;;;-4.79;51.83
46886;BME280;32622;48.202;11.326;2022-12-04T02:45:02;1017.26;;;-4.24;51.43
46886;BME280;32622;48.202;11.326;2022-12-04T02:47:10;1017.37;;;-4.58;51.71
46886;BME280;32622;48.202;11.326;2022-12-04T02:49:16;1017.57;;;-5.53;54.22
46886;BME280;32622;48.202;11.326;2022-12-04T02:51:23;1017.31;;;-4.62;53.06
46886;BME280;32622;48.202;11.326;2022-12-04T02:53:30;1017.14;;;-4.16;51.94
46886;BME280;32622;48.202;11.326;2022-12-04T02:55:39;1017.07;;;-3.75;52.34
46886;BME280;32622;48.202;11.326;2022-12-04T02:57:48;1017.26;;;-4.41;51.23
46886;BME280;32622;48.202;11.326;2022-12-04T02:59:53;1017.10;;;-4.08;51.84
46886;BME280;32622;48.202;11.326;2022-12-04T03:02:01;1017.05;;;-4.37;51.64
46886;BME280;32622;48.202;11.326;2022-12-04T03:04:10;1017.46;;;-5.81;54.51
46886;BME280;32622;48.202;11.326;2022-12-04T03:06:17;1016.98;;;-3.78;50.74
46886;BME280;32622;48.202;11.326;2022-12-04T03:08:25;1017.10;;;-3.93;50.62
46886;BME280;32622;48.202;11.326;2022-12-04T03:10:33;1016.96;;;-3.10;47.97
46886;BME280;32622;48.202;11.326;2022-12-04T03:12:40;1016.78;;;-2.21;46.82
46886;BME280;32622;48.202;11.326;2022-12-04T03:14:49;1016.83;;;-2.78;46.17
46886;BME280;32622;48.202;11.326;2022-12-04T03:16:58;1016.79;;;-2.71;45.90
46886;BME280;32622;48.202;11.326;2022-12-04T03:19:08;1016.86;;;-2.80;45.72
46886;BME280;32622;48.202;11.326;2022-12-04T03:21:15;1016.81;;;-2.52;45.25
46886;BME280;32622;48.202;11.326;2022-12-04T03:23:22;1017.24;;;-4.16;49.30
46886;BME280;32622;48.202;11.326;2022-12-04T03:25:34;1017.75;;;-5.66;52.84
46886;BME280;32622;48.202;11.326;2022-12-04T03:27:43;1017.07;;;-3.87;50.08
46886;BME280;32622;48.202;11.326;2022-12-04T03:29:51;1017.21;;;-4.17;50.52
46886;BME280;32622;48.202;11.326;2022-12-04T03:31:58;1016.92;;;-3.08;48.52
46886;BME280;32622;48.202;11.326;2022-12-04T03:34:03;1016.93;;;-3.07;48.25
46886;BME280;32622;48.202;11.326;2022-12-04T03:36:12;1016.87;;;-2.80;46.97
46886;BME280;32622;48.202;11.326;2022-12-04T03:38:20;1016.74;;;-2.32;45.68
46886;BME280;32622;48.202;11.326;2022-12-04T03:40:29;1016.62;;;-1.67;45.16
46886;BME280;32622;48.202;11.326;2022-12-04T03:42:36;1016.57;;;-1.43;44.27
46886;BME280;32622;48.202;11.326;2022-12-04T03:44:44;1016.63;;;-1.79;44.10
46886;BME280;32622;48.202;11.326;2022-12-04T03:46:53;1016.51;;;-1.36;44.11
46886;BME280;32622;48.202;11.326;2022-12-04T03:49:02;1016.51;;;-1.40;44.68
46886;BME280;32622;48.202;11.326;2022-12-04T03:51:15;1016.74;;;-2.40;45.77
46886;BME280;32622;48.202;11.326;2022-12-04T03:53:24;1016.67;;;-2.12;44.75
46886;BME280;32622;48.202;11.326;2022-12-04T03:55:33;1017.38;;;-4.77;50.13
46886;BME280;32622;48.202;11.326;2022-12-04T03:57:42;1016.84;;;-2.81;47.17
46886;BME280;32622;48.202;11.326;2022-12-04T03:59:48;1016.85;;;-2.70;46.29
46886;BME280;32622;48.202;11.326;2022-12-04T04:01:57;1016.57;;;-2.18;45.99
46886;BME280;32622;48.202;11.326;2022-12-04T04:04:02;1016.76;;;-2.92;46.50
46886;BME280;32622;48.202;11.326;2022-12-04T04:06:09;1016.30;;;-1.39;44.58
46886;BME280;32622;48.202;11.326;2022-12-04T04:08:17;1016.34;;;-1.73;44.29
46886;BME280;32622;48.202;11.326;2022-12-04T04:10:24;1016.32;;;-1.78;44.37
46886;BME280;32622;48.202;11.326;2022-12-04T04:12:32;1016.22;;;-1.10;43.62
46886;BME280;32622;48.202;11.326;2022-12-04T04:14:40;1016.80;;;-3.21;46.90
46886;BME280;32622;48.202;11.326;2022-12-04T04:16:46;1016.69;;;-2.84;47.82
46886;BME280;32622;48.202;11.326;2022-12-04T04:18:51;1016.77;;;-2.98;47.83
46886;BME280;32622;48.202;11.326;2022-12-04T04:20:58;1016.92;;;-3.56;48.56
46886;BME280;32622;48.202;11.326;2022-12-04T04:23:03;1016.57;;;-2.25;46.94
46886;BME280;32622;48.202;11.326;2022-12-04T04:25:10;1016.83;;;-3.44;47.15
46886;BME280;32622;48.202;11.326;2022-12-04T04:27:13;1016.68;;;-2.76;46.57
46886;BME280;32622;48.202;11.326;2022-12-04T04:29:16;1016.82;;;-3.40;48.50
46886;BME280;32622;48.202;11.326;2022-12-04T04:31:25;1016.59;;;-2.51;46.44
46886;BME280;32622;48.202;11.326;2022-12-04T04:33:31;1017.20;;;-4.60;48.84
46886;BME280;32622;48.202;11.326;2022-12-04T04:35:42;1016.53;;;-2.22;45.85
46886;BME280;32622;48.202;11.326;2022-12-04T04:37:55;1016.41;;;-1.88;44.95
46886;BME280;32622;48.202;11.326;2022-12-04T04:40:06;1016.43;;;-2.22;45.17
46886;BME280;32622;48.202;11.326;2022-12-04T04:42:20;1017.32;;;-5.44;51.49
46886;BME280;32622;48.202;11.326;2022-12-04T04:44:27;1016.59;;;-2.49;46.97
46886;BME280;32622;48.202;11.326;2022-12-04T04:46:33;1016.57;;;-2.58;46.23
46886;BME280;32622;48.202;11.326;2022-12-04T04:48:40;1016.85;;;-3.74;47.23
46886;BME280;32622;48.202;11.326;2022-12-04T04:50:45;1016.47;;;-2.17;46.48
46886;BME280;32622;48.202;11.326;2022-12-04T04:52:52;1016.45;;;-1.99;45.55
46886;BME280;32622;48.202;11.326;2022-12-04T04:54:58;1016.48;;;-2.37;45.88
46886;BME280;32622;48.202;11.326;2022-12-04T04:57:02;1016.50;;;-2.52;45.61
46886;BME280;32622;48.202;11.326;2022-12-04T04:59:04;1016.68;;;-3.15;47.29
46886;BME280;32622;48.202;11.326;2022-12-04T05:01:09;1016.39;;;-2.08;45.52
46886;BME280;32622;48.202;11.326;2022-12-04T05:03:12;1016.39;;;-1.78;45.05
46886;BME280;32622;48.202;11.326;2022-12-04T05:05:15;1016.32;;;-1.50;44.71
46886;BME280;32622;48.202;11.326;2022-12-04T05:07:18;1016.45;;;-2.30;44.12
46886;BME280;32622;48.202;11.326;2022-12-04T05:09:20;1016.54;;;-2.72;45.08
46886;BME280;32622;48.202;11.326;2022-12-04T05:11:23;1016.14;;;-0.88;43.20
46886;BME280;32622;48.202;11.326;2022-12-04T05:13:27;1016.40;;;-1.85;44.52
46886;BME280;32622;48.202;11.326;2022-12-04T05:15:30;1016.34;;;-1.67;43.68
46886;BME280;32622;48.202;11.326;2022-12-04T05:17:34;1016.28;;;-1.47;43.30
46886;BME280;32622;48.202;11.326;2022-12-04T05:19:36;1016.12;;;-0.79;42.31
46886;BME280;32622;48.202;11.326;2022-12-04T05:21:39;1016.57;;;-2.51;43.29
46886;BME280;32622;48.202;11.326;2022-12-04T05:23:42;1016.55;;;-2.27;44.84
46886;BME280;32622;48.202;11.326;2022-12-04T05:25:45;1016.19;;;-0.88;42.61
46886;BME280;32622;48.202;11.326;2022-12-04T05:27:47;1016.42;;;-1.98;43.41
46886;BME280;32622;48.202;11.326;2022-12-04T05:29:51;1016.26;;;-1.51;42.70
46886;BME280;32622;48.202;11.326;2022-12-04T05:31:54;1015.99;;;-0.44;41.01
46886;BME280;32622;48.202;11.326;2022-12-04T05:33:56;1016.21;;;-1.04;41.70
46886;BME280;32622;48.202;11.326;2022-12-04T05:36:00;1016.41;;;-1.91;42.93
46886;BME280;32622;48.202;11.326;2022-12-04T05:38:03;1016.13;;;-0.74;41.78
46886;BME280;32622;48.202;11.326;2022-12-04T05:40:07;1016.21;;;-1.04;42.71
46886;BME280;32622;48.202;11.326;2022-12-04T05:42:10;1016.03;;;-0.50;41.55
46886;BME280;32622;48.202;11.326;2022-12-04T05:44:13;1015.95;;;-0.53;41.06
46886;BME280;32622;48.202;11.326;2022-12-04T05:46:15;1015.87;;;-0.42;40.87
46886;BME280;32622;48.202;11.326;2022-12-04T05:48:18;1015.87;;;-0.47;40.55
46886;BME280;32622;48.202;11.326;2022-12-04T05:50:20;1015.99;;;-0.78;41.09
46886;BME280;32622;48.202;11.326;2022-12-04T05:52:23;1016.19;;;-1.52;42.46
46886;BME280;32622;48.202;11.326;2022-12-04T05:54:26;1016.02;;;-0.85;42.23
46886;BME280;32622;48.202;11.326;2022-12-04T05:56:28;1016.03;;;-0.82;41.88
46886;BME280;32622;48.202;11.326;2022-12-04T05:58:33;1016.13;;;-1.08;42.04
46886;BME280;32622;48.202;11.326;2022-12-04T06:00:36;1016.13;;;-1.09;41.56
46886;BME280;32622;48.202;11.326;2022-12-04T06:02:38;1016.16;;;-1.09;41.58
46886;BME280;32622;48.202;11.326;2022-12-04T06:04:41;1016.33;;;-2.01;43.47
46886;BME280;32622;48.202;11.326;2022-12-04T06:06:44;1016.11;;;-1.44;43.50
46886;BME280;32622;48.202;11.326;2022-12-04T06:08:47;1016.50;;;-3.04;45.69
46886;BME280;32622;48.202;11.326;2022-12-04T06:10:49;1016.18;;;-1.58;43.91
46886;BME280;32622;48.202;11.326;2022-12-04T06:12:52;1016.14;;;-1.52;43.84
46886;BME280;32622;48.202;11.326;2022-12-04T06:14:55;1015.94;;;-0.83;42.65
46886;BME280;32622;48.202;11.326;2022-12-04T06:16:57;1016.48;;;-3.24;44.96
46886;BME280;32622;48.202;11.326;2022-12-04T06:19:03;1016.09;;;-1.52;43.95
46886;BME280;32622;48.202;11.326;2022-12-04T06:21:06;1016.25;;;-2.10;44.33
46886;BME280;32622;48.202;11.326;2022-12-04T06:23:09;1016.15;;;-1.89;44.41
46886;BME280;32622;48.202;11.326;2022-12-04T06:25:11;1016.17;;;-1.47;43.68
46886;BME280;32622;48.202;11.326;2022-12-04T06:27:14;1016.00;;;-0.60;42.32
46886;BME280;32622;48.202;11.326;2022-12-04T06:29:16;1016.17;;;-1.10;42.71
46886;BME280;32622;48.202;11.326;2022-12-04T06:31:19;1015.93;;;-0.16;41.49
46886;BME280;32622;48.202;11.326;2022-12-04T06:33:22;1015.96;;;-0.27;40.77
46886;BME280;32622;48.202;11.326;2022-12-04T06:35:24;1016.12;;;-0.22;41.22
46886;BME280;32622;48.202;11.326;2022-12-04T06:37:27;1016.19;;;-0.26;40.87
46886;BME280;32622;48.202;11.326;2022-12-04T06:39:29;1016.34;;;-0.86;41.87
46886;BME280;32622;48.202;11.326;2022-12-04T06:41:32;1016.09;;;-0.33;41.11
46886;BME280;32622;48.202;11.326;2022-12-04T06:43:35;1016.30;;;-1.27;41.87
46886;BME280;32622;48.202;11.326;2022-12-04T06:45:37;1016.17;;;-0.62;41.33
46886;BME280;32622;48.202;11.326;2022-12-04T06:47:40;1015.95;;;-0.21;40.40
46886;BME280;32622;48.202;11.326;2022-12-04T06:49:42;1015.95;;;-0.06;40.37
46886;BME280;32622;48.202;11.326;2022-12-04T06:51:45;1016.06;;;-0.54;41.04
46886;BME280;32622;48.202;11.326;2022-12-04T06:53:48;1016.18;;;-1.39;43.05
46886;BME280;32622;48.202;11.326;2022-12-04T06:55:51;1016.26;;;-1.85;43.21
46886;BME280;32622;48.202;11.326;2022-12-04T06:57:53;1016.19;;;-1.15;41.87
46886;BME280;32622;48.202;11.326;2022-12-04T06:59:56;1016.16;;;-0.76;41.84
46886;BME280;32622;48.202;11.326;2022-12-04T07:01:58;1016.69;;;-3.19;45.14
46886;BME280;32622;48.202;11.326;2022-12-04T07:04:02;1016.44;;;-2.15;43.99
46886;BME280;32622;48.202;11.326;2022-12-04T07:16:55;1015.95;;;0.02;48.27
46886;BME280;32622;48.202;11.326;2022-12-04T07:18:59;1016.33;;;-1.67;46.17
46886;BME280;32622;48.202;11.326;2022-12-04T07:21:04;1016.10;;;-0.87;44.05
46886;BME280;32622;48.202;11.326;2022-12-04T07:23:13;1016.02;;;-0.67;42.94
46886;BME280;32622;48.202;11.326;2022-12-04T07:25:25;1016.20;;;-1.30;43.86
46886;BME280;32622;48.202;11.326;2022-12-04T07:27:30;1016.68;;;-2.94;46.88
46886;BME280;32622;48.202;11.326;2022-12-04T07:29:33;1016.25;;;-1.45;45.17
46886;BME280;32622;48.202;11.326;2022-12-04T07:31:36;1016.26;;;-1.51;44.85
46886;BME280;32622;48.202;11.326;2022-12-04T07:33:40;1016.29;;;-1.92;45.91
46886;BME280;32622;48.202;11.326;2022-12-04T07:35:44;1016.05;;;-0.76;44.17
46886;BME280;32622;48.202;11.326;2022-12-04T07:37:47;1016.10;;;-0.79;43.61
46886;BME280;32622;48.202;11.326;2022-12-04T07:39:50;1016.19;;;-0.66;42.36
46886;BME280;32622;48.202;11.326;2022-12-04T07:42:01;1016.03;;;-0.44;41.82
46886;BME280;32622;48.202;11.326;2022-12-04T07:44:04;1016.26;;;-1.64;42.75
46886;BME280;32622;48.202;11.326;2022-12-04T07:47:41;1015.69;;;1.05;43.32
46886;BME280;32622;48.202;11.326;2022-12-04T07:49:44;1016.25;;;-0.70;43.14
46886;BME280;32622;48.202;11.326;2022-12-04T07:51:47;1016.35;;;-1.15;43.95
46886;BME280;32622;48.202;11.326;2022-12-04T07:54:00;1016.11;;;-0.01;42.31
46886;BME280;32622;48.202;11.326;2022-12-04T07:56:14;1016.45;;;-1.27;44.41
46886;BME280;32622;48.202;11.326;2022-12-04T07:58:20;1016.55;;;-1.30;43.65
46886;BME280;32622;48.202;11.326;2022-12-04T08:00:22;1016.42;;;-0.45;42.23
46886;BME280;32622;48.202;11.326;2022-12-04T08:02:26;1016.63;;;-1.63;44.88
46886;BME280;32622;48.202;11.326;2022-12-04T08:04:29;1016.57;;;-1.51;44.41
46886;BME280;32622;48.202;11.326;2022-12-04T08:06:33;1016.30;;;-0.85;43.49
46886;BME280;32622;48.202;11.326;2022-12-04T08:08:36;1016.17;;;-0.97;42.99
46886;BME280;32622;48.202;11.326;2022-12-04T08:10:39;1015.82;;;-0.15;42.50
46886;BME280;32622;48.202;11.326;2022-12-04T08:12:42;1016.13;;;-1.36;44.50
46886;BME280;32622;48.202;11.326;2022-12-04T08:14:46;1016.31;;;-2.14;46.07
46886;BME280;32622;48.202;11.326;2022-12-04T08:16:50;1016.12;;;-1.44;45.11
46886;BME280;32622;48.202;11.326;2022-12-04T08:18:53;1016.42;;;-2.56;47.58
46886;BME280;32622;48.202;11.326;2022-12-04T08:21:03;1016.94;;;-3.51;48.53
46886;BME280;32622;48.202;11.326;2022-12-04T08:23:05;1016.43;;;-1.24;45.61
46886;BME280;32622;48.202;11.326;2022-12-04T08:25:09;1016.14;;;-0.80;44.49
46886;BME280;32622;48.202;11.326;2022-12-04T08:27:12;1016.44;;;-1.80;46.09
46886;BME280;32622;48.202;11.326;2022-12-04T08:29:14;1016.52;;;-1.47;45.32
46886;BME280;32622;48.202;11.326;2022-12-04T08:31:19;1016.14;;;0.03;43.62
46886;BME280;32622;48.202;11.326;2022-12-04T08:33:22;1016.42;;;-1.51;44.94
46886;BME280;32622;48.202;11.326;2022-12-04T08:35:25;1016.46;;;-1.97;45.11
46886;BME280;32622;48.202;11.326;2022-12-04T08:37:28;1016.47;;;-1.54;44.56
46886;BME280;32622;48.202;11.326;2022-12-04T08:39:30;1016.23;;;-0.75;43.21
46886;BME280;32622;48.202;11.326;2022-12-04T08:41:33;1015.87;;;0.03;42.27
46886;BME280;32622;48.202;11.326;2022-12-04T08:43:36;1015.78;;;0.47;41.28
46886;BME280;32622;48.202;11.326;2022-12-04T08:45:39;1016.21;;;-0.90;41.82
46886;BME280;32622;48.202;11.326;2022-12-04T08:47:41;1015.86;;;0.38;41.56
46886;BME280;32622;48.202;11.326;2022-12-04T08:49:44;1016.56;;;-2.32;46.06
46886;BME280;32622;48.202;11.326;2022-12-04T08:51:47;1016.39;;;-1.57;44.11
46886;BME280;32622;48.202;11.326;2022-12-04T08:53:53;1016.36;;;-1.10;43.65
46886;BME280;32622;48.202;11.326;2022-12-04T08:55:56;1016.65;;;-1.76;46.36
46886;BME280;32622;48.202;11.326;2022-12-04T08:58:01;1016.22;;;-0.37;43.70
46886;BME280;32622;48.202;11.326;2022-12-04T09:00:05;1016.12;;;-0.11;42.87
46886;BME280;32622;48.202;11.326;2022-12-04T09:02:09;1016.21;;;-0.63;42.93
46886;BME280;32622;48.202;11.326;2022-12-04T09:04:11;1015.91;;;0.29;42.20
46886;BME280;32622;48.202;11.326;2022-12-04T09:06:15;1015.65;;;1.15;41.09
46886;BME280;32622;48.202;11.326;2022-12-04T09:08:17;1016.22;;;-0.72;42.36
46886;BME280;32622;48.202;11.326;2022-12-04T09:10:19;1015.94;;;0.52;41.60
46886;BME280;32622;48.202;11.326;2022-12-04T09:12:22;1016.09;;;0.09;41.40
46886;BME280;32622;48.202;11.326;2022-12-04T09:14:24;1015.81;;;0.92;40.65
46886;BME280;32622;48.202;11.326;2022-12-04T09:16:26;1015.61;;;1.22;40.04
46886;BME280;32622;48.202;11.326;2022-12-04T09:18:29;1015.41;;;1.74;39.80
46886;BME280;32622;48.202;11.326;2022-12-04T09:20:32;1015.34;;;1.74;39.28
46886;BME280;32622;48.202;11.326;2022-12-04T09:22:35;1015.29;;;1.81;38.94
46886;BME280;32622;48.202;11.326;2022-12-04T09:24:37;1015.34;;;2.10;38.45
46886;BME280;32622;48.202;11.326;2022-12-04T09:26:40;1015.33;;;2.58;37.60
46886;BME280;32622;48.202;11.326;2022-12-04T09:28:43;1015.37;;;2.77;37.19
46886;BME280;32622;48.202;11.326;2022-12-04T09:30:54;1015.63;;;2.00;37.94
46886;BME280;32622;48.202;11.326;2022-12-04T09:32:56;1015.60;;;1.81;38.45
46886;BME280;32622;48.202;11.326;2022-12-04T09:34:58;1015.65;;;1.08;39.15
46886;BME280;32622;48.202;11.326;2022-12-04T09:37:01;1015.56;;;1.63;39.35
46886;BME280;32622;48.202;11.326;2022-12-04T09:39:04;1015.76;;;1.41;39.22
46886;BME280;32622;48.202;11.326;2022-12-04T09:41:20;1015.56;;;1.79;39.17
46886;BME280;32622;48.202;11.326;2022-12-04T09:43:32;1015.61;;;1.36;38.87
46886;BME280;32622;48.202;11.326;2022-12-04T09:45:41;1015.26;;;2.26;38.70
46886;BME280;32622;48.202;11.326;2022-12-04T09:48:20;1014.75;;;3.99;39.30
46886;BME280;32622;48.202;11.326;2022-12-04T09:50:27;1015.14;;;2.05;39.04
46886;BME280;32622;48.202;11.326;2022-12-04T09:52:44;1015.19;;;1.92;39.02
46886;BME280;32622;48.202;11.326;2022-12-04T09:54:48;1015.01;;;2.03;38.51
46886;BME280;32622;48.202;11.326;2022-12-04T09:56:54;1015.01;;;1.93;38.70
46886;BME280;32622;48.202;11.326;2022-12-04T09:59:07;1014.80;;;2.67;37.77
46886;BME280;32622;48.202;11.326;2022-12-04T10:01:20;1014.70;;;2.67;37.65
46886;BME280;32622;48.202;11.326;2022-12-04T10:03:25;1014.73;;;2.34;37.99
46886;BME280;32622;48.202;11.326;2022-12-04T10:05:40;1015.12;;;1.21;39.16
46886;BME280;32622;48.202;11.326;2022-12-04T10:07:52;1015.62;;;-0.01;40.82
46886;BME280;32622;48.202;11.326;2022-12-04T10:10:01;1015.31;;;1.53;39.84
46886;BME280;32622;48.202;11.326;2022-12-04T10:12:13;1015.52;;;0.95;40.12
46886;BME280;32622;48.202;11.326;2022-12-04T10:14:38;1015.34;;;1.50;40.39
46886;BME280;32622;48.202;11.326;2022-12-04T10:16:55;1015.61;;;-0.26;41.81
46886;BME280;32622;48.202;11.326;2022-12-04T10:19:07;1015.25;;;0.92;41.23
46886;BME280;32622;48.202;11.326;2022-12-04T10:21:23;1015.10;;;1.47;40.50
46886;BME280;32622;48.202;11.326;2022-12-04T10:23:39;1014.87;;;1.89;39.44
46886;BME280;32622;48.202;11.326;2022-12-04T10:25:43;1014.67;;;2.62;39.23
46886;BME280;32622;48.202;11.326;2022-12-04T10:27:49;1014.79;;;1.72;39.08
46886;BME280;32622;48.202;11.326;2022-12-04T10:29:57;1014.59;;;2.08;39.23
46886;BME280;32622;48.202;11.326;2022-12-04T10:32:12;1014.77;;;0.95;40.04
46886;BME280;32622;48.202;11.326;2022-12-04T10:34:18;1014.47;;;1.80;39.96
46886;BME280;32622;48.202;11.326;2022-12-04T10:36:27;1014.40;;;1.91;39.45
46886;BME280;32622;48.202;11.326;2022-12-04T10:38:36;1014.40;;;1.99;38.94
46886;BME280;32622;48.202;11.326;2022-12-04T10:40:45;1014.36;;;2.19;38.96
46886;BME280;32622;48.202;11.326;2022-12-04T10:42:52;1014.47;;;1.85;39.15
46886;BME280;32622;48.202;11.326;2022-12-04T10:44:57;1014.84;;;0.52;42.28
46886;BME280;32622;48.202;11.326;2022-12-04T10:47:00;1014.95;;;-0.14;43.48
46886;BME280;32622;48.202;11.326;2022-12-04T10:49:08;1014.89;;;0.58;43.13
46886;BME280;32622;48.202;11.326;2022-12-04T10:51:18;1015.27;;;-0.59;44.36
46886;BME280;32622;48.202;11.326;2022-12-04T10:53:24;1014.86;;;0.67;42.10
46886;BME280;32622;48.202;11.326;2022-12-04T10:55:32;1014.43;;;1.39;41.45
46886;BME280;32622;48.202;11.326;2022-12-04T10:57:37;1014.58;;;0.80;41.79
46886;BME280;32622;48.202;11.326;2022-12-04T10:59:48;1014.66;;;0.94;40.97
46886;BME280;32622;48.202;11.326;2022-12-04T11:01:59;1014.40;;;1.52;41.16
46886;BME280;32622;48.202;11.326;2022-12-04T11:04:05;1014.53;;;0.62;42.00
46886;BME280;32622;48.202;11.326;2022-12-04T11:06:09;1014.67;;;-0.42;44.59
46886;BME280;32622;48.202;11.326;2022-12-04T11:08:21;1014.37;;;0.66;43.06
46886;BME280;32622;48.202;11.326;2022-12-04T11:10:27;1014.26;;;1.03;42.03
46886;BME280;32622;48.202;11.326;2022-12-04T11:12:33;1014.12;;;1.65;41.05
46886;BME280;32622;48.202;11.326;2022-12-04T11:14:35;1014.07;;;1.71;40.80
46886;BME280;32622;48.202;11.326;2022-12-04T11:16:39;1014.19;;;1.36;40.66
46886;BME280;32622;48.202;11.326;2022-12-04T11:18:47;1014.38;;;1.57;41.01
46886;BME280;32622;48.202;11.326;2022-12-04T11:20:52;1014.21;;;2.35;40.33